sensor_id;sensor_type;location;lat;lon;timestamp;temperature;humidity
16976;DHT22;8604;48.148;-1.786;2023-07-31T00:00:17;17.80;99.90
16976;DHT22;8604;48.148;-1.786;2023-07-31T00:02:45;17.80;99.90
16976;DHT22;8604;48.148;-1.786;2023-07-31T00:05:15;17.80;99.90
16976;DHT22;8604;48.148;-1.786;2023-07-31T00:07:44;17.80;99.90
16976;DHT22;8604;48.148;-1.786;2023-07-31T00:10:12;17.80;99.90
16976;DHT22;8604;48.148;-1.786;2023-07-31T00:12:42;17.80;99.90
16976;DHT22;8604;48.148;-1.786;2023-07-31T00:15:10;17.90;99.90
16976;DHT22;8604;48.148;-1.786;2023-07-31T00:17:40;17.90;99.90
16976;DHT22;8604;48.148;-1.786;2023-07-31T00:20:09;17.90;99.90
16976;DHT22;8604;48.148;-1.786;2023-07-31T00:22:38;17.90;99.90
16976;DHT22;8604;48.148;-1.786;2023-07-31T00:25:06;17.90;99.90
16976;DHT22;8604;48.148;-1.786;2023-07-31T00:27:35;17.90;99.90
16976;DHT22;8604;48.148;-1.786;2023-07-31T00:30:05;17.80;99.90
16976;DHT22;8604;48.148;-1.786;2023-07-31T00:32:33;17.80;99.90
16976;DHT22;8604;48.148;-1.786;2023-07-31T00:35:04;17.80;99.90
16976;DHT22;8604;48.148;-1.786;2023-07-31T00:37:32;17.80;99.90
16976;DHT22;8604;48.148;-1.786;2023-07-31T00:40:01;17.80;99.90
16976;DHT22;8604;48.148;-1.786;2023-07-31T00:42:31;17.80;99.90
16976;DHT22;8604;48.148;-1.786;2023-07-31T00:44:59;17.80;99.90
16976;DHT22;8604;48.148;-1.786;2023-07-31T00:47:29;17.80;99.90
16976;DHT22;8604;48.148;-1.786;2023-07-31T00:49:57;17.80;99.90
16976;DHT22;8604;48.148;-1.786;2023-07-31T00:52:27;17.80;99.90
16976;DHT22;8604;48.148;-1.786;2023-07-31T00:54:56;17.80;99.90
16976;DHT22;8604;48.148;-1.786;2023-07-31T00:57:25;17.80;99.90
16976;DHT22;8604;48.148;-1.786;2023-07-31T00:59:53;17.80;99.90
16976;DHT22;8604;48.148;-1.786;2023-07-31T01:02:21;17.80;99.90
16976;DHT22;8604;48.148;-1.786;2023-07-31T01:04:51;17.80;99.90
16976;DHT22;8604;48.148;-1.786;2023-07-31T01:07:24;17.80;99.90
16976;DHT22;8604;48.148;-1.786;2023-07-31T01:10:03;17.80;99.90
16976;DHT22;8604;48.148;-1.786;2023-07-31T01:12:34;17.80;99.90
16976;DHT22;8604;48.148;-1.786;2023-07-31T01:15:05;17.80;99.90
16976;DHT22;8604;48.148;-1.786;2023-07-31T01:17:38;17.80;99.90
16976;DHT22;8604;48.148;-1.786;2023-07-31T01:20:10;17.80;99.90
16976;DHT22;8604;48.148;-1.786;2023-07-31T01:22:49;17.80;99.90
16976;DHT22;8604;48.148;-1.786;2023-07-31T01:25:56;17.80;99.90
16976;DHT22;8604;48.148;-1.786;2023-07-31T01:28:29;17.80;99.90
16976;DHT22;8604;48.148;-1.786;2023-07-31T01:31:00;17.80;99.90
16976;DHT22;8604;48.148;-1.786;2023-07-31T01:33:30;17.80;99.90
16976;DHT22;8604;48.148;-1.786;2023-07-31T01:35:59;17.80;99.90
16976;DHT22;8604;48.148;-1.786;2023-07-31T01:38:28;17.80;99.90
16976;DHT22;8604;48.148;-1.786;2023-07-31T01:40:58;17.80;99.90
16976;DHT22;8604;48.148;-1.786;2023-07-31T01:43:26;17.80;99.90
16976;DHT22;8604;48.148;-1.786;2023-07-31T01:45:55;17.80;99.90
16976;DHT22;8604;48.148;-1.786;2023-07-31T01:48:24;17.80;99.90
16976;DHT22;8604;48.148;-1.786;2023-07-31T01:50:52;17.80;99.90
16976;DHT22;8604;48.148;-1.786;2023-07-31T01:53:21;17.80;99.90
16976;DHT22;8604;48.148;-1.786;2023-07-31T01:55:49;17.80;99.90
16976;DHT22;8604;48.148;-1.786;2023-07-31T01:58:19;17.80;99.90
16976;DHT22;8604;48.148;-1.786;2023-07-31T02:00:47;17.80;99.90
16976;DHT22;8604;48.148;-1.786;2023-07-31T02:03:15;17.80;99.90
16976;DHT22;8604;48.148;-1.786;2023-07-31T02:05:44;17.80;99.90
16976;DHT22;8604;48.148;-1.786;2023-07-31T02:08:13;17.80;99.90
16976;DHT22;8604;48.148;-1.786;2023-07-31T02:10:42;17.80;99.90
16976;DHT22;8604;48.148;-1.786;2023-07-31T02:13:10;17.80;99.90
16976;DHT22;8604;48.148;-1.786;2023-07-31T02:15:40;17.80;99.90
16976;DHT22;8604;48.148;-1.786;2023-07-31T02:18:09;17.80;99.90
16976;DHT22;8604;48.148;-1.786;2023-07-31T02:20:37;17.80;99.90
16976;DHT22;8604;48.148;-1.786;2023-07-31T02:23:05;17.80;99.90
16976;DHT22;8604;48.148;-1.786;2023-07-31T02:25:34;17.80;99.90
16976;DHT22;8604;48.148;-1.786;2023-07-31T02:28:03;17.80;99.90
16976;DHT22;8604;48.148;-1.786;2023-07-31T02:30:32;17.80;99.90
16976;DHT22;8604;48.148;-1.786;2023-07-31T02:33:02;17.80;99.90
16976;DHT22;8604;48.148;-1.786;2023-07-31T02:35:30;17.70;99.90
16976;DHT22;8604;48.148;-1.786;2023-07-31T02:37:59;17.80;99.90
16976;DHT22;8604;48.148;-1.786;2023-07-31T02:40:27;17.80;99.90
16976;DHT22;8604;48.148;-1.786;2023-07-31T02:42:56;17.80;99.90
16976;DHT22;8604;48.148;-1.786;2023-07-31T02:45:24;17.70;99.90
16976;DHT22;8604;48.148;-1.786;2023-07-31T02:47:52;17.70;99.90
16976;DHT22;8604;48.148;-1.786;2023-07-31T02:50:22;17.80;99.90
16976;DHT22;8604;48.148;-1.786;2023-07-31T02:52:50;17.80;99.90
16976;DHT22;8604;48.148;-1.786;2023-07-31T02:55:19;17.80;99.90
16976;DHT22;8604;48.148;-1.786;2023-07-31T02:57:47;17.80;99.90
16976;DHT22;8604;48.148;-1.786;2023-07-31T03:00:15;17.80;99.90
16976;DHT22;8604;48.148;-1.786;2023-07-31T03:02:44;17.70;99.90
16976;DHT22;8604;48.148;-1.786;2023-07-31T03:05:12;17.80;99.90
16976;DHT22;8604;48.148;-1.786;2023-07-31T03:07:42;17.80;99.90
16976;DHT22;8604;48.148;-1.786;2023-07-31T03:10:10;17.80;99.90
16976;DHT22;8604;48.148;-1.786;2023-07-31T03:12:39;17.80;99.90
16976;DHT22;8604;48.148;-1.786;2023-07-31T03:15:09;17.80;99.90
16976;DHT22;8604;48.148;-1.786;2023-07-31T03:17:37;17.70;99.90
16976;DHT22;8604;48.148;-1.786;2023-07-31T03:20:06;17.80;99.90
16976;DHT22;8604;48.148;-1.786;2023-07-31T03:22:36;17.70;99.90
16976;DHT22;8604;48.148;-1.786;2023-07-31T03:25:07;17.70;99.90
16976;DHT22;8604;48.148;-1.786;2023-07-31T03:27:37;17.70;99.90
16976;DHT22;8604;48.148;-1.786;2023-07-31T03:30:06;17.70;99.90
16976;DHT22;8604;48.148;-1.786;2023-07-31T03:32:36;17.80;99.90
16976;DHT22;8604;48.148;-1.786;2023-07-31T03:35:05;17.80;99.90
16976;DHT22;8604;48.148;-1.786;2023-07-31T03:37:34;17.80;99.90
16976;DHT22;8604;48.148;-1.786;2023-07-31T03:40:02;17.80;99.90
16976;DHT22;8604;48.148;-1.786;2023-07-31T03:42:32;17.80;99.90
16976;DHT22;8604;48.148;-1.786;2023-07-31T03:45:02;17.80;99.90
16976;DHT22;8604;48.148;-1.786;2023-07-31T03:47:30;17.80;99.90
16976;DHT22;8604;48.148;-1.786;2023-07-31T03:49:58;17.80;99.90
16976;DHT22;8604;48.148;-1.786;2023-07-31T03:52:27;17.70;99.90
16976;DHT22;8604;48.148;-1.786;2023-07-31T03:54:55;17.70;99.90
16976;DHT22;8604;48.148;-1.786;2023-07-31T03:57:23;17.70;99.90
16976;DHT22;8604;48.148;-1.786;2023-07-31T03:59:53;17.70;99.90
16976;DHT22;8604;48.148;-1.786;2023-07-31T04:02:21;17.70;99.90
16976;DHT22;8604;48.148;-1.786;2023-07-31T04:04:50;17.70;99.90
16976;DHT22;8604;48.148;-1.786;2023-07-31T04:07:18;17.80;99.90
16976;DHT22;8604;48.148;-1.786;2023-07-31T04:09:47;17.70;99.90
16976;DHT22;8604;48.148;-1.786;2023-07-31T04:12:15;17.70;99.90
16976;DHT22;8604;48.148;-1.786;2023-07-31T04:14:43;17.80;99.90
16976;DHT22;8604;48.148;-1.786;2023-07-31T04:17:13;17.80;99.90
16976;DHT22;8604;48.148;-1.786;2023-07-31T04:19:41;17.80;99.90
16976;DHT22;8604;48.148;-1.786;2023-07-31T04:22:09;17.80;99.90
16976;DHT22;8604;48.148;-1.786;2023-07-31T04:24:38;17.80;99.90
16976;DHT22;8604;48.148;-1.786;2023-07-31T04:27:06;17.80;99.90
16976;DHT22;8604;48.148;-1.786;2023-07-31T04:29:34;17.80;99.90
16976;DHT22;8604;48.148;-1.786;2023-07-31T04:32:03;17.80;99.90
16976;DHT22;8604;48.148;-1.786;2023-07-31T04:34:33;17.90;99.90
16976;DHT22;8604;48.148;-1.786;2023-07-31T04:37:01;17.80;99.90
16976;DHT22;8604;48.148;-1.786;2023-07-31T04:39:30;17.80;99.90
16976;DHT22;8604;48.148;-1.786;2023-07-31T04:41:58;17.90;99.90
16976;DHT22;8604;48.148;-1.786;2023-07-31T04:44:26;17.90;99.90
16976;DHT22;8604;48.148;-1.786;2023-07-31T04:46:55;17.90;99.90
16976;DHT22;8604;48.148;-1.786;2023-07-31T04:49:23;17.90;99.90
16976;DHT22;8604;48.148;-1.786;2023-07-31T04:51:53;17.90;99.90
16976;DHT22;8604;48.148;-1.786;2023-07-31T04:54:21;17.90;99.90
16976;DHT22;8604;48.148;-1.786;2023-07-31T04:56:53;17.90;99.90
16976;DHT22;8604;48.148;-1.786;2023-07-31T04:59:21;17.90;99.90
16976;DHT22;8604;48.148;-1.786;2023-07-31T05:01:50;17.90;99.90
16976;DHT22;8604;48.148;-1.786;2023-07-31T05:04:18;18.00;99.90
16976;DHT22;8604;48.148;-1.786;2023-07-31T05:06:46;18.00;99.90
16976;DHT22;8604;48.148;-1.786;2023-07-31T05:09:16;18.00;99.90
16976;DHT22;8604;48.148;-1.786;2023-07-31T05:11:45;18.00;99.90
16976;DHT22;8604;48.148;-1.786;2023-07-31T05:14:13;18.10;99.90
16976;DHT22;8604;48.148;-1.786;2023-07-31T05:16:42;18.10;99.90
16976;DHT22;8604;48.148;-1.786;2023-07-31T05:19:11;18.00;99.90
16976;DHT22;8604;48.148;-1.786;2023-07-31T05:21:39;18.10;99.90
16976;DHT22;8604;48.148;-1.786;2023-07-31T05:24:07;18.00;99.90
16976;DHT22;8604;48.148;-1.786;2023-07-31T05:26:37;18.00;99.90
16976;DHT22;8604;48.148;-1.786;2023-07-31T05:29:06;18.10;99.90
16976;DHT22;8604;48.148;-1.786;2023-07-31T05:31:34;18.10;99.90
16976;DHT22;8604;48.148;-1.786;2023-07-31T05:34:03;18.20;99.90
16976;DHT22;8604;48.148;-1.786;2023-07-31T05:36:31;18.10;99.90
16976;DHT22;8604;48.148;-1.786;2023-07-31T05:38:59;18.20;99.90
16976;DHT22;8604;48.148;-1.786;2023-07-31T05:41:33;18.20;99.90
16976;DHT22;8604;48.148;-1.786;2023-07-31T05:44:03;18.20;99.90
16976;DHT22;8604;48.148;-1.786;2023-07-31T05:46:31;18.20;99.90
16976;DHT22;8604;48.148;-1.786;2023-07-31T05:49:00;18.20;99.90
16976;DHT22;8604;48.148;-1.786;2023-07-31T05:51:29;18.30;99.90
16976;DHT22;8604;48.148;-1.786;2023-07-31T05:54:03;18.30;99.90
16976;DHT22;8604;48.148;-1.786;2023-07-31T05:56:38;18.30;99.90
16976;DHT22;8604;48.148;-1.786;2023-07-31T05:59:13;18.30;99.90
16976;DHT22;8604;48.148;-1.786;2023-07-31T06:02:15;18.30;99.90
16976;DHT22;8604;48.148;-1.786;2023-07-31T06:04:57;18.40;99.90
16976;DHT22;8604;48.148;-1.786;2023-07-31T06:07:39;18.40;99.90
16976;DHT22;8604;48.148;-1.786;2023-07-31T06:10:12;18.40;99.90
16976;DHT22;8604;48.148;-1.786;2023-07-31T06:13:11;18.40;99.90
16976;DHT22;8604;48.148;-1.786;2023-07-31T06:15:51;18.50;99.90
16976;DHT22;8604;48.148;-1.786;2023-07-31T06:19:11;18.50;99.90
16976;DHT22;8604;48.148;-1.786;2023-07-31T06:21:51;18.50;99.90
16976;DHT22;8604;48.148;-1.786;2023-07-31T06:24:35;18.60;99.90
16976;DHT22;8604;48.148;-1.786;2023-07-31T06:27:07;18.60;99.90
16976;DHT22;8604;48.148;-1.786;2023-07-31T06:29:36;18.60;99.90
16976;DHT22;8604;48.148;-1.786;2023-07-31T06:32:11;18.60;99.90
16976;DHT22;8604;48.148;-1.786;2023-07-31T06:35:02;18.70;99.90
16976;DHT22;8604;48.148;-1.786;2023-07-31T06:37:50;18.70;99.90
16976;DHT22;8604;48.148;-1.786;2023-07-31T06:40:38;18.80;99.90
16976;DHT22;8604;48.148;-1.786;2023-07-31T06:43:10;18.70;99.90
16976;DHT22;8604;48.148;-1.786;2023-07-31T06:45:46;18.80;99.90
16976;DHT22;8604;48.148;-1.786;2023-07-31T06:48:28;18.80;99.90
16976;DHT22;8604;48.148;-1.786;2023-07-31T06:50:56;18.80;99.90
16976;DHT22;8604;48.148;-1.786;2023-07-31T06:53:25;18.80;99.90
16976;DHT22;8604;48.148;-1.786;2023-07-31T06:55:53;18.80;99.90
16976;DHT22;8604;48.148;-1.786;2023-07-31T06:58:21;18.90;99.90
16976;DHT22;8604;48.148;-1.786;2023-07-31T07:00:50;18.90;99.90
16976;DHT22;8604;48.148;-1.786;2023-07-31T07:03:19;18.90;99.90
16976;DHT22;8604;48.148;-1.786;2023-07-31T07:05:48;18.90;99.90
16976;DHT22;8604;48.148;-1.786;2023-07-31T07:08:17;18.90;99.90
16976;DHT22;8604;48.148;-1.786;2023-07-31T07:10:45;18.90;99.90
16976;DHT22;8604;48.148;-1.786;2023-07-31T07:13:14;18.90;99.90
16976;DHT22;8604;48.148;-1.786;2023-07-31T07:15:43;18.90;99.90
16976;DHT22;8604;48.148;-1.786;2023-07-31T07:18:12;18.90;99.90
16976;DHT22;8604;48.148;-1.786;2023-07-31T07:20:49;19.00;99.90
16976;DHT22;8604;48.148;-1.786;2023-07-31T07:23:18;19.00;99.90
16976;DHT22;8604;48.148;-1.786;2023-07-31T07:25:47;19.10;99.90
16976;DHT22;8604;48.148;-1.786;2023-07-31T07:28:15;19.10;99.90
16976;DHT22;8604;48.148;-1.786;2023-07-31T07:30:44;19.10;99.90
16976;DHT22;8604;48.148;-1.786;2023-07-31T07:33:12;19.10;99.90
16976;DHT22;8604;48.148;-1.786;2023-07-31T07:35:40;19.20;99.90
16976;DHT22;8604;48.148;-1.786;2023-07-31T07:38:10;19.20;99.90
16976;DHT22;8604;48.148;-1.786;2023-07-31T07:40:39;19.30;99.90
16976;DHT22;8604;48.148;-1.786;2023-07-31T07:43:08;19.20;99.90
16976;DHT22;8604;48.148;-1.786;2023-07-31T07:45:36;19.20;99.90
16976;DHT22;8604;48.148;-1.786;2023-07-31T07:48:12;19.20;99.90
16976;DHT22;8604;48.148;-1.786;2023-07-31T07:50:41;19.20;99.90
16976;DHT22;8604;48.148;-1.786;2023-07-31T07:53:10;19.30;99.90
16976;DHT22;8604;48.148;-1.786;2023-07-31T07:55:39;19.30;99.90
16976;DHT22;8604;48.148;-1.786;2023-07-31T07:58:08;19.30;99.90
16976;DHT22;8604;48.148;-1.786;2023-07-31T08:00:36;19.30;99.90
16976;DHT22;8604;48.148;-1.786;2023-07-31T08:03:11;19.30;99.90
16976;DHT22;8604;48.148;-1.786;2023-07-31T08:05:49;19.30;99.90
16976;DHT22;8604;48.148;-1.786;2023-07-31T08:08:50;19.30;99.90
16976;DHT22;8604;48.148;-1.786;2023-07-31T08:11:29;19.30;99.90
16976;DHT22;8604;48.148;-1.786;2023-07-31T08:13:58;19.30;99.90
16976;DHT22;8604;48.148;-1.786;2023-07-31T08:16:26;19.30;99.90
16976;DHT22;8604;48.148;-1.786;2023-07-31T08:18:55;19.30;99.90
16976;DHT22;8604;48.148;-1.786;2023-07-31T08:21:24;19.30;99.90
16976;DHT22;8604;48.148;-1.786;2023-07-31T08:23:53;19.30;99.90
16976;DHT22;8604;48.148;-1.786;2023-07-31T08:26:22;19.30;99.90
16976;DHT22;8604;48.148;-1.786;2023-07-31T08:28:50;19.30;99.90
16976;DHT22;8604;48.148;-1.786;2023-07-31T08:31:19;19.30;99.90
16976;DHT22;8604;48.148;-1.786;2023-07-31T08:33:47;19.30;99.90
16976;DHT22;8604;48.148;-1.786;2023-07-31T08:36:16;19.30;99.90
16976;DHT22;8604;48.148;-1.786;2023-07-31T08:38:45;19.30;99.90
16976;DHT22;8604;48.148;-1.786;2023-07-31T08:41:15;19.30;99.90
16976;DHT22;8604;48.148;-1.786;2023-07-31T08:43:45;19.30;99.90
16976;DHT22;8604;48.148;-1.786;2023-07-31T08:46:14;19.40;99.90
16976;DHT22;8604;48.148;-1.786;2023-07-31T08:48:43;19.40;99.90
16976;DHT22;8604;48.148;-1.786;2023-07-31T08:51:14;19.50;99.90
16976;DHT22;8604;48.148;-1.786;2023-07-31T08:53:42;19.50;99.90
16976;DHT22;8604;48.148;-1.786;2023-07-31T08:56:11;19.60;99.90
16976;DHT22;8604;48.148;-1.786;2023-07-31T08:58:44;19.70;99.90
16976;DHT22;8604;48.148;-1.786;2023-07-31T09:01:14;19.70;99.90
16976;DHT22;8604;48.148;-1.786;2023-07-31T09:03:44;19.80;99.90
16976;DHT22;8604;48.148;-1.786;2023-07-31T09:06:15;19.80;99.90
16976;DHT22;8604;48.148;-1.786;2023-07-31T09:08:45;19.90;99.90
16976;DHT22;8604;48.148;-1.786;2023-07-31T09:11:14;20.00;99.90
16976;DHT22;8604;48.148;-1.786;2023-07-31T09:13:45;20.00;99.90
16976;DHT22;8604;48.148;-1.786;2023-07-31T09:16:14;20.10;99.90
16976;DHT22;8604;48.148;-1.786;2023-07-31T09:18:53;20.20;99.90
16976;DHT22;8604;48.148;-1.786;2023-07-31T09:21:24;20.30;99.90
16976;DHT22;8604;48.148;-1.786;2023-07-31T09:23:54;20.40;99.90
16976;DHT22;8604;48.148;-1.786;2023-07-31T09:26:31;20.60;99.90
16976;DHT22;8604;48.148;-1.786;2023-07-31T09:29:04;20.60;99.90
16976;DHT22;8604;48.148;-1.786;2023-07-31T09:31:39;20.80;99.90
16976;DHT22;8604;48.148;-1.786;2023-07-31T09:34:09;20.90;99.90
16976;DHT22;8604;48.148;-1.786;2023-07-31T09:36:42;20.90;99.90
16976;DHT22;8604;48.148;-1.786;2023-07-31T09:39:11;21.00;99.90
16976;DHT22;8604;48.148;-1.786;2023-07-31T09:41:42;21.10;99.90
16976;DHT22;8604;48.148;-1.786;2023-07-31T09:44:12;21.10;99.90
16976;DHT22;8604;48.148;-1.786;2023-07-31T09:46:40;21.30;99.90
16976;DHT22;8604;48.148;-1.786;2023-07-31T09:49:11;21.30;99.90
16976;DHT22;8604;48.148;-1.786;2023-07-31T09:51:41;21.40;99.90
16976;DHT22;8604;48.148;-1.786;2023-07-31T09:54:10;21.50;99.90
16976;DHT22;8604;48.148;-1.786;2023-07-31T09:56:42;21.40;99.90
16976;DHT22;8604;48.148;-1.786;2023-07-31T09:59:14;21.40;99.90
16976;DHT22;8604;48.148;-1.786;2023-07-31T10:01:44;21.40;99.90
16976;DHT22;8604;48.148;-1.786;2023-07-31T10:04:13;21.30;99.90
16976;DHT22;8604;48.148;-1.786;2023-07-31T10:06:43;21.30;99.90
16976;DHT22;8604;48.148;-1.786;2023-07-31T10:09:16;21.30;99.90
16976;DHT22;8604;48.148;-1.786;2023-07-31T10:11:47;21.20;99.90
16976;DHT22;8604;48.148;-1.786;2023-07-31T10:14:21;21.10;99.90
16976;DHT22;8604;48.148;-1.786;2023-07-31T10:16:52;21.10;99.90
16976;DHT22;8604;48.148;-1.786;2023-07-31T10:19:22;21.10;99.90
16976;DHT22;8604;48.148;-1.786;2023-07-31T10:21:50;21.00;99.90
16976;DHT22;8604;48.148;-1.786;2023-07-31T10:24:19;21.00;99.90
16976;DHT22;8604;48.148;-1.786;2023-07-31T10:26:49;21.00;99.90
16976;DHT22;8604;48.148;-1.786;2023-07-31T10:29:22;21.00;99.90
16976;DHT22;8604;48.148;-1.786;2023-07-31T10:31:52;20.90;99.90
16976;DHT22;8604;48.148;-1.786;2023-07-31T10:34:21;20.90;99.90
16976;DHT22;8604;48.148;-1.786;2023-07-31T10:41:16;20.90;99.90
16976;DHT22;8604;48.148;-1.786;2023-07-31T10:43:46;20.90;99.90
16976;DHT22;8604;48.148;-1.786;2023-07-31T10:46:16;20.90;99.90
16976;DHT22;8604;48.148;-1.786;2023-07-31T10:48:45;20.90;99.90
16976;DHT22;8604;48.148;-1.786;2023-07-31T10:51:32;21.00;99.90
16976;DHT22;8604;48.148;-1.786;2023-07-31T10:54:12;21.10;99.90
16976;DHT22;8604;48.148;-1.786;2023-07-31T10:56:44;21.40;99.90
16976;DHT22;8604;48.148;-1.786;2023-07-31T10:59:13;21.90;99.90
16976;DHT22;8604;48.148;-1.786;2023-07-31T11:01:52;22.30;99.90
16976;DHT22;8604;48.148;-1.786;2023-07-31T11:04:22;22.50;99.90
16976;DHT22;8604;48.148;-1.786;2023-07-31T11:06:59;22.50;99.90
16976;DHT22;8604;48.148;-1.786;2023-07-31T11:09:29;22.40;99.90
16976;DHT22;8604;48.148;-1.786;2023-07-31T11:11:59;22.40;99.90
16976;DHT22;8604;48.148;-1.786;2023-07-31T11:14:28;22.40;99.90
16976;DHT22;8604;48.148;-1.786;2023-07-31T11:16:58;22.40;99.90
16976;DHT22;8604;48.148;-1.786;2023-07-31T11:19:27;22.20;99.90
16976;DHT22;8604;48.148;-1.786;2023-07-31T11:21:56;22.20;99.90
16976;DHT22;8604;48.148;-1.786;2023-07-31T11:24:27;22.20;99.90
16976;DHT22;8604;48.148;-1.786;2023-07-31T11:26:55;22.40;99.90
16976;DHT22;8604;48.148;-1.786;2023-07-31T11:29:27;22.50;99.90
16976;DHT22;8604;48.148;-1.786;2023-07-31T11:31:57;22.40;99.90
16976;DHT22;8604;48.148;-1.786;2023-07-31T11:34:26;22.40;99.90
16976;DHT22;8604;48.148;-1.786;2023-07-31T11:36:56;22.40;99.90
16976;DHT22;8604;48.148;-1.786;2023-07-31T11:39:26;22.30;99.90
16976;DHT22;8604;48.148;-1.786;2023-07-31T11:41:59;22.20;99.90
16976;DHT22;8604;48.148;-1.786;2023-07-31T11:44:38;22.20;99.90
16976;DHT22;8604;48.148;-1.786;2023-07-31T11:47:08;22.20;99.90
16976;DHT22;8604;48.148;-1.786;2023-07-31T11:49:37;22.20;99.90
16976;DHT22;8604;48.148;-1.786;2023-07-31T11:52:06;22.20;99.90
16976;DHT22;8604;48.148;-1.786;2023-07-31T11:54:35;22.20;99.90
16976;DHT22;8604;48.148;-1.786;2023-07-31T11:57:05;22.30;99.90
16976;DHT22;8604;48.148;-1.786;2023-07-31T11:59:34;22.20;99.90
16976;DHT22;8604;48.148;-1.786;2023-07-31T12:02:03;22.20;99.90
16976;DHT22;8604;48.148;-1.786;2023-07-31T12:04:33;22.10;99.90
16976;DHT22;8604;48.148;-1.786;2023-07-31T12:07:06;22.20;99.90
16976;DHT22;8604;48.148;-1.786;2023-07-31T12:09:34;22.20;99.90
16976;DHT22;8604;48.148;-1.786;2023-07-31T12:12:08;22.30;99.90
16976;DHT22;8604;48.148;-1.786;2023-07-31T12:14:41;22.30;99.90
16976;DHT22;8604;48.148;-1.786;2023-07-31T12:17:10;22.30;99.90
16976;DHT22;8604;48.148;-1.786;2023-07-31T12:19:40;22.40;99.90
16976;DHT22;8604;48.148;-1.786;2023-07-31T12:22:12;22.70;99.90
16976;DHT22;8604;48.148;-1.786;2023-07-31T12:24:42;22.70;99.90
16976;DHT22;8604;48.148;-1.786;2023-07-31T12:27:14;22.80;99.90
16976;DHT22;8604;48.148;-1.786;2023-07-31T12:29:45;22.70;99.90
16976;DHT22;8604;48.148;-1.786;2023-07-31T12:32:21;22.60;99.90
16976;DHT22;8604;48.148;-1.786;2023-07-31T12:34:51;22.50;99.90
16976;DHT22;8604;48.148;-1.786;2023-07-31T12:37:20;22.40;99.90
16976;DHT22;8604;48.148;-1.786;2023-07-31T12:39:49;22.30;99.90
16976;DHT22;8604;48.148;-1.786;2023-07-31T12:42:17;22.30;99.90
16976;DHT22;8604;48.148;-1.786;2023-07-31T12:44:46;22.20;99.90
16976;DHT22;8604;48.148;-1.786;2023-07-31T12:47:15;22.20;99.90
16976;DHT22;8604;48.148;-1.786;2023-07-31T12:49:44;22.20;99.90
16976;DHT22;8604;48.148;-1.786;2023-07-31T12:52:14;22.10;99.90
16976;DHT22;8604;48.148;-1.786;2023-07-31T12:54:42;22.10;99.90
16976;DHT22;8604;48.148;-1.786;2023-07-31T12:57:11;22.10;99.90
16976;DHT22;8604;48.148;-1.786;2023-07-31T12:59:39;22.10;99.90
16976;DHT22;8604;48.148;-1.786;2023-07-31T13:02:08;22.10;99.90
16976;DHT22;8604;48.148;-1.786;2023-07-31T13:04:37;22.10;99.90
16976;DHT22;8604;48.148;-1.786;2023-07-31T13:07:05;22.10;99.90
16976;DHT22;8604;48.148;-1.786;2023-07-31T13:09:35;22.00;99.90
16976;DHT22;8604;48.148;-1.786;2023-07-31T13:12:04;22.00;99.90
16976;DHT22;8604;48.148;-1.786;2023-07-31T13:14:33;22.00;99.90
16976;DHT22;8604;48.148;-1.786;2023-07-31T13:17:02;22.00;99.90
16976;DHT22;8604;48.148;-1.786;2023-07-31T13:19:30;22.00;99.90
16976;DHT22;8604;48.148;-1.786;2023-07-31T13:21:59;22.00;99.90
16976;DHT22;8604;48.148;-1.786;2023-07-31T13:24:27;22.00;99.90
16976;DHT22;8604;48.148;-1.786;2023-07-31T13:26:57;21.90;99.90
16976;DHT22;8604;48.148;-1.786;2023-07-31T13:29:26;21.80;99.90
16976;DHT22;8604;48.148;-1.786;2023-07-31T13:31:54;21.60;99.90
16976;DHT22;8604;48.148;-1.786;2023-07-31T13:34:23;21.60;99.90
16976;DHT22;8604;48.148;-1.786;2023-07-31T13:36:53;21.50;99.90
16976;DHT22;8604;48.148;-1.786;2023-07-31T13:39:22;21.50;99.90
16976;DHT22;8604;48.148;-1.786;2023-07-31T13:41:51;21.50;99.90
16976;DHT22;8604;48.148;-1.786;2023-07-31T13:44:20;21.50;99.90
16976;DHT22;8604;48.148;-1.786;2023-07-31T13:46:49;21.30;99.90
16976;DHT22;8604;48.148;-1.786;2023-07-31T13:49:18;21.30;99.90
16976;DHT22;8604;48.148;-1.786;2023-07-31T13:51:46;21.20;99.90
16976;DHT22;8604;48.148;-1.786;2023-07-31T13:54:15;21.10;99.90
16976;DHT22;8604;48.148;-1.786;2023-07-31T14:01:13;20.90;99.90
16976;DHT22;8604;48.148;-1.786;2023-07-31T14:04:21;20.90;99.90
16976;DHT22;8604;48.148;-1.786;2023-07-31T14:08:37;20.80;99.90
16976;DHT22;8604;48.148;-1.786;2023-07-31T14:33:03;20.30;99.90
16976;DHT22;8604;48.148;-1.786;2023-07-31T14:35:51;20.30;99.90
16976;DHT22;8604;48.148;-1.786;2023-07-31T14:38:27;20.20;99.90
16976;DHT22;8604;48.148;-1.786;2023-07-31T14:41:01;20.20;99.90
16976;DHT22;8604;48.148;-1.786;2023-07-31T14:43:34;20.20;99.90
16976;DHT22;8604;48.148;-1.786;2023-07-31T14:46:22;20.20;99.90
16976;DHT22;8604;48.148;-1.786;2023-07-31T14:49:33;20.20;99.90
16976;DHT22;8604;48.148;-1.786;2023-07-31T14:54:21;20.20;99.90
16976;DHT22;8604;48.148;-1.786;2023-07-31T14:56:30;20.20;99.90
16976;DHT22;8604;48.148;-1.786;2023-07-31T14:59:26;20.20;99.90
16976;DHT22;8604;48.148;-1.786;2023-07-31T15:02:25;20.20;99.90
16976;DHT22;8604;48.148;-1.786;2023-07-31T15:05:19;20.20;99.90
16976;DHT22;8604;48.148;-1.786;2023-07-31T15:07:56;20.20;99.90
16976;DHT22;8604;48.148;-1.786;2023-07-31T15:10:30;20.20;99.90
16976;DHT22;8604;48.148;-1.786;2023-07-31T15:12:59;20.30;99.90
16976;DHT22;8604;48.148;-1.786;2023-07-31T15:21:02;20.20;99.90
16976;DHT22;8604;48.148;-1.786;2023-07-31T15:23:42;20.20;99.90
16976;DHT22;8604;48.148;-1.786;2023-07-31T15:26:14;20.30;99.90
16976;DHT22;8604;48.148;-1.786;2023-07-31T15:28:49;20.30;99.90
16976;DHT22;8604;48.148;-1.786;2023-07-31T15:31:18;20.30;99.90
16976;DHT22;8604;48.148;-1.786;2023-07-31T15:33:47;20.40;99.90
16976;DHT22;8604;48.148;-1.786;2023-07-31T15:36:16;20.30;99.90
16976;DHT22;8604;48.148;-1.786;2023-07-31T15:38:47;20.30;99.90
16976;DHT22;8604;48.148;-1.786;2023-07-31T15:41:18;20.30;99.90
16976;DHT22;8604;48.148;-1.786;2023-07-31T15:43:48;20.30;99.90
16976;DHT22;8604;48.148;-1.786;2023-07-31T15:46:20;20.20;99.90
16976;DHT22;8604;48.148;-1.786;2023-07-31T15:48:53;20.30;99.90
16976;DHT22;8604;48.148;-1.786;2023-07-31T15:51:26;20.20;99.90
16976;DHT22;8604;48.148;-1.786;2023-07-31T15:53:58;20.20;99.90
16976;DHT22;8604;48.148;-1.786;2023-07-31T15:56:26;20.20;99.90
16976;DHT22;8604;48.148;-1.786;2023-07-31T15:58:58;20.20;99.90
16976;DHT22;8604;48.148;-1.786;2023-07-31T16:01:30;20.20;99.90
16976;DHT22;8604;48.148;-1.786;2023-07-31T16:03:58;20.20;99.90
16976;DHT22;8604;48.148;-1.786;2023-07-31T16:06:32;20.20;99.90
16976;DHT22;8604;48.148;-1.786;2023-07-31T16:09:34;20.20;99.90
16976;DHT22;8604;48.148;-1.786;2023-07-31T16:12:50;20.10;99.90
16976;DHT22;8604;48.148;-1.786;2023-07-31T16:16:02;20.10;99.90
16976;DHT22;8604;48.148;-1.786;2023-07-31T16:18:39;20.10;99.90
16976;DHT22;8604;48.148;-1.786;2023-07-31T16:21:11;20.10;99.90
16976;DHT22;8604;48.148;-1.786;2023-07-31T16:23:58;20.10;99.90
16976;DHT22;8604;48.148;-1.786;2023-07-31T16:26:28;20.10;99.90
16976;DHT22;8604;48.148;-1.786;2023-07-31T16:28:57;20.10;99.90
16976;DHT22;8604;48.148;-1.786;2023-07-31T16:31:26;20.10;99.90
16976;DHT22;8604;48.148;-1.786;2023-07-31T16:34:03;20.10;99.90
16976;DHT22;8604;48.148;-1.786;2023-07-31T16:36:32;20.00;99.90